Accueil
METAR-TAF:

METAR-TAF

Aéroports :

Base aérienne 120 Cazaux

Cazaux, France

latitude: 44-32N, longitude: 001-08W, altitude: 25 m

Observation

Le bulletin a été fait il y a 33 minutes, à 20:30 UTC
Vent 6 kt de est/nord-est
Température 24°C
Humidité 54%
Pression 1011 hPa
Visibilité 10 km ou plus
pas de nuages en-dessous de 1500 mètres et pas de cumulonimbus.

METAR: LFBC 312030Z AUTO 06006KT CAVOK 24/14 Q1011

Heure: 23:03 (21:03 UTC)

Prévision

Le bulletin a été fait il y a 11 heures et 33 minutes, à 09:30 UTC
Prévision valable du 31 à 09 UTC au 01 à 09 UTC
Vent 2 kt de sud-est
Visibilité 10 km ou plus
pas de nuages en-dessous de 1500 mètres et pas de cumulonimbus.
Evoluant progressivement
du 31 à 17 UTC au 31 à 19 UTC
Vent 12 kt de nord-est
Evoluant progressivement
du 01 à 00 UTC au 01 à 02 UTC
Vent 2 kt de sud/sud-est

TAF: LFBC 310930Z 3109/0109 13002KT CAVOK BECMG 3117/3119 05012KT BECMG 0100/0102 16002KT

Observations et prévisions météorologiques de plus de 4000 aéroports (messages METAR et TAF).

Les stations disponibles sont représentées par des disques jaunes et rouges sur la carte.

Passer la souris dessus pour voir le nom de la station.

Cliquer dessus pour voir les observations et prévisions météorologiques.

Pour changer de carte: cliquez sur les boutons verts avec une croix noire pour zoomer, sur le bouton vert avec un tiret pour effectuer un zoom arrière, ou sur les flèches vertes pour les cartes adjacentes.


METAR-TAF: